sensor_id;sensor_type;location;lat;lon;timestamp;P1;durP1;ratioP1;P2;durP2;ratioP2
15258;SDS011;34462;51.368;12.364;2022-12-10T00:01:47;27.53;;;15.37;;
15258;SDS011;34462;51.368;12.364;2022-12-10T00:04:18;25.57;;;15.17;;
15258;SDS011;34462;51.368;12.364;2022-12-10T00:06:47;30.40;;;16.53;;
15258;SDS011;34462;51.368;12.364;2022-12-10T00:09:16;27.10;;;16.47;;
15258;SDS011;34462;51.368;12.364;2022-12-10T00:11:48;27.37;;;15.97;;
15258;SDS011;34462;51.368;12.364;2022-12-10T00:14:17;26.03;;;15.40;;
15258;SDS011;34462;51.368;12.364;2022-12-10T00:16:46;26.70;;;15.43;;
15258;SDS011;34462;51.368;12.364;2022-12-10T00:19:14;26.83;;;15.60;;
15258;SDS011;34462;51.368;12.364;2022-12-10T00:21:42;26.53;;;15.93;;
15258;SDS011;34462;51.368;12.364;2022-12-10T00:24:11;27.10;;;16.20;;
15258;SDS011;34462;51.368;12.364;2022-12-10T00:26:40;23.80;;;14.27;;
15258;SDS011;34462;51.368;12.364;2022-12-10T00:29:09;23.20;;;14.67;;
15258;SDS011;34462;51.368;12.364;2022-12-10T00:31:40;22.63;;;14.23;;
15258;SDS011;34462;51.368;12.364;2022-12-10T00:34:09;23.03;;;13.73;;
15258;SDS011;34462;51.368;12.364;2022-12-10T00:36:39;22.60;;;14.07;;
15258;SDS011;34462;51.368;12.364;2022-12-10T00:39:11;23.83;;;14.57;;
15258;SDS011;34462;51.368;12.364;2022-12-10T00:41:41;24.90;;;14.83;;
15258;SDS011;34462;51.368;12.364;2022-12-10T00:44:10;22.57;;;13.87;;
15258;SDS011;34462;51.368;12.364;2022-12-10T00:46:38;23.17;;;13.53;;
15258;SDS011;34462;51.368;12.364;2022-12-10T00:49:08;26.73;;;15.23;;
15258;SDS011;34462;51.368;12.364;2022-12-10T00:51:37;23.60;;;14.63;;
15258;SDS011;34462;51.368;12.364;2022-12-10T00:54:06;26.30;;;15.13;;
15258;SDS011;34462;51.368;12.364;2022-12-10T00:56:35;25.33;;;15.67;;
15258;SDS011;34462;51.368;12.364;2022-12-10T00:59:04;28.00;;;16.13;;
15258;SDS011;34462;51.368;12.364;2022-12-10T01:01:33;24.87;;;14.47;;
15258;SDS011;34462;51.368;12.364;2022-12-10T01:04:08;26.57;;;14.40;;
15258;SDS011;34462;51.368;12.364;2022-12-10T01:06:40;23.90;;;14.70;;
15258;SDS011;34462;51.368;12.364;2022-12-10T01:09:11;24.83;;;14.83;;
15258;SDS011;34462;51.368;12.364;2022-12-10T01:11:44;25.97;;;15.00;;
15258;SDS011;34462;51.368;12.364;2022-12-10T01:14:15;26.73;;;15.60;;
15258;SDS011;34462;51.368;12.364;2022-12-10T01:16:53;25.67;;;14.77;;
15258;SDS011;34462;51.368;12.364;2022-12-10T01:19:25;26.90;;;15.00;;
15258;SDS011;34462;51.368;12.364;2022-12-10T01:21:53;25.47;;;15.80;;
15258;SDS011;34462;51.368;12.364;2022-12-10T01:24:24;28.10;;;15.37;;
15258;SDS011;34462;51.368;12.364;2022-12-10T01:26:55;27.00;;;15.33;;
15258;SDS011;34462;51.368;12.364;2022-12-10T01:29:24;24.90;;;15.37;;
15258;SDS011;34462;51.368;12.364;2022-12-10T01:31:54;29.03;;;16.20;;
15258;SDS011;34462;51.368;12.364;2022-12-10T01:34:25;25.70;;;15.33;;
15258;SDS011;34462;51.368;12.364;2022-12-10T01:36:54;26.27;;;14.73;;
15258;SDS011;34462;51.368;12.364;2022-12-10T01:39:22;25.67;;;14.13;;
15258;SDS011;34462;51.368;12.364;2022-12-10T01:41:52;25.20;;;14.27;;
15258;SDS011;34462;51.368;12.364;2022-12-10T01:47:35;21.70;;;13.37;;
15258;SDS011;34462;51.368;12.364;2022-12-10T01:50:06;24.50;;;14.50;;
15258;SDS011;34462;51.368;12.364;2022-12-10T01:52:36;25.23;;;14.33;;
15258;SDS011;34462;51.368;12.364;2022-12-10T01:58:10;22.97;;;14.10;;
15258;SDS011;34462;51.368;12.364;2022-12-10T02:00:43;24.03;;;14.10;;
15258;SDS011;34462;51.368;12.364;2022-12-10T02:03:26;21.57;;;13.80;;
15258;SDS011;34462;51.368;12.364;2022-12-10T02:06:13;23.50;;;13.33;;
15258;SDS011;34462;51.368;12.364;2022-12-10T02:08:56;18.13;;;11.60;;
15258;SDS011;34462;51.368;12.364;2022-12-10T02:11:37;22.87;;;12.53;;
15258;SDS011;34462;51.368;12.364;2022-12-10T02:14:15;20.47;;;11.43;;
15258;SDS011;34462;51.368;12.364;2022-12-10T02:16:52;20.83;;;12.97;;
15258;SDS011;34462;51.368;12.364;2022-12-10T02:19:28;20.53;;;12.67;;
15258;SDS011;34462;51.368;12.364;2022-12-10T02:22:18;20.17;;;12.10;;
15258;SDS011;34462;51.368;12.364;2022-12-10T02:24:50;19.83;;;11.67;;
15258;SDS011;34462;51.368;12.364;2022-12-10T02:27:23;21.60;;;12.27;;
15258;SDS011;34462;51.368;12.364;2022-12-10T02:30:01;20.20;;;12.57;;
15258;SDS011;34462;51.368;12.364;2022-12-10T02:32:31;20.60;;;12.23;;
15258;SDS011;34462;51.368;12.364;2022-12-10T02:35:05;18.67;;;11.33;;
15258;SDS011;34462;51.368;12.364;2022-12-10T02:37:39;19.03;;;11.87;;
15258;SDS011;34462;51.368;12.364;2022-12-10T02:40:15;20.40;;;12.53;;
15258;SDS011;34462;51.368;12.364;2022-12-10T02:42:50;23.00;;;12.83;;
15258;SDS011;34462;51.368;12.364;2022-12-10T02:45:21;19.50;;;11.90;;
15258;SDS011;34462;51.368;12.364;2022-12-10T02:47:55;20.50;;;12.77;;
15258;SDS011;34462;51.368;12.364;2022-12-10T02:50:27;22.17;;;13.13;;
15258;SDS011;34462;51.368;12.364;2022-12-10T02:52:55;21.50;;;13.60;;
15258;SDS011;34462;51.368;12.364;2022-12-10T02:55:23;21.27;;;12.30;;
15258;SDS011;34462;51.368;12.364;2022-12-10T02:57:59;21.70;;;12.93;;
15258;SDS011;34462;51.368;12.364;2022-12-10T03:00:41;23.87;;;13.40;;
15258;SDS011;34462;51.368;12.364;2022-12-10T03:03:23;23.50;;;13.03;;
15258;SDS011;34462;51.368;12.364;2022-12-10T03:06:03;23.70;;;14.30;;
15258;SDS011;34462;51.368;12.364;2022-12-10T03:08:40;22.00;;;12.80;;
15258;SDS011;34462;51.368;12.364;2022-12-10T03:11:16;21.50;;;13.43;;
15258;SDS011;34462;51.368;12.364;2022-12-10T03:13:50;25.13;;;14.67;;
15258;SDS011;34462;51.368;12.364;2022-12-10T03:16:28;24.03;;;12.93;;
15258;SDS011;34462;51.368;12.364;2022-12-10T03:19:03;22.47;;;13.90;;
15258;SDS011;34462;51.368;12.364;2022-12-10T03:21:39;22.57;;;13.63;;
15258;SDS011;34462;51.368;12.364;2022-12-10T03:24:11;23.93;;;13.77;;
15258;SDS011;34462;51.368;12.364;2022-12-10T03:26:43;23.50;;;14.47;;
15258;SDS011;34462;51.368;12.364;2022-12-10T03:29:15;26.03;;;14.40;;
15258;SDS011;34462;51.368;12.364;2022-12-10T03:31:52;22.67;;;12.93;;
15258;SDS011;34462;51.368;12.364;2022-12-10T03:34:22;22.20;;;13.70;;
15258;SDS011;34462;51.368;12.364;2022-12-10T03:36:50;21.63;;;13.73;;
15258;SDS011;34462;51.368;12.364;2022-12-10T03:39:20;20.83;;;12.97;;
15258;SDS011;34462;51.368;12.364;2022-12-10T03:41:49;25.30;;;13.97;;
15258;SDS011;34462;51.368;12.364;2022-12-10T03:44:26;23.10;;;14.73;;
15258;SDS011;34462;51.368;12.364;2022-12-10T03:46:57;23.27;;;14.17;;
15258;SDS011;34462;51.368;12.364;2022-12-10T03:49:26;23.57;;;14.23;;
15258;SDS011;34462;51.368;12.364;2022-12-10T03:51:54;25.10;;;15.30;;
15258;SDS011;34462;51.368;12.364;2022-12-10T03:54:22;20.50;;;13.57;;
15258;SDS011;34462;51.368;12.364;2022-12-10T03:56:50;25.07;;;14.00;;
15258;SDS011;34462;51.368;12.364;2022-12-10T03:59:19;24.37;;;14.70;;
15258;SDS011;34462;51.368;12.364;2022-12-10T04:01:47;24.53;;;14.90;;
15258;SDS011;34462;51.368;12.364;2022-12-10T04:04:17;26.27;;;15.90;;
15258;SDS011;34462;51.368;12.364;2022-12-10T04:06:45;25.17;;;15.10;;
15258;SDS011;34462;51.368;12.364;2022-12-10T04:09:14;25.17;;;15.07;;
15258;SDS011;34462;51.368;12.364;2022-12-10T04:11:43;25.70;;;15.23;;
15258;SDS011;34462;51.368;12.364;2022-12-10T04:14:12;26.63;;;16.13;;
15258;SDS011;34462;51.368;12.364;2022-12-10T04:16:58;28.70;;;16.83;;
15258;SDS011;34462;51.368;12.364;2022-12-10T04:19:28;26.87;;;15.80;;
15258;SDS011;34462;51.368;12.364;2022-12-10T04:21:56;28.77;;;15.80;;
15258;SDS011;34462;51.368;12.364;2022-12-10T04:24:42;28.60;;;16.03;;
15258;SDS011;34462;51.368;12.364;2022-12-10T04:27:28;30.93;;;16.00;;
15258;SDS011;34462;51.368;12.364;2022-12-10T04:29:59;31.40;;;17.13;;
15258;SDS011;34462;51.368;12.364;2022-12-10T04:32:28;27.77;;;15.47;;
15258;SDS011;34462;51.368;12.364;2022-12-10T04:34:58;29.27;;;16.23;;
15258;SDS011;34462;51.368;12.364;2022-12-10T04:37:27;28.00;;;15.50;;
15258;SDS011;34462;51.368;12.364;2022-12-10T04:39:55;30.10;;;15.97;;
15258;SDS011;34462;51.368;12.364;2022-12-10T04:42:24;29.03;;;15.77;;
15258;SDS011;34462;51.368;12.364;2022-12-10T04:44:52;29.20;;;17.23;;
15258;SDS011;34462;51.368;12.364;2022-12-10T04:47:20;32.20;;;16.67;;
15258;SDS011;34462;51.368;12.364;2022-12-10T04:49:48;29.80;;;17.20;;
15258;SDS011;34462;51.368;12.364;2022-12-10T04:52:18;27.77;;;16.30;;
15258;SDS011;34462;51.368;12.364;2022-12-10T04:54:46;26.50;;;15.97;;
15258;SDS011;34462;51.368;12.364;2022-12-10T04:57:14;29.90;;;17.03;;
15258;SDS011;34462;51.368;12.364;2022-12-10T04:59:42;30.23;;;15.63;;
15258;SDS011;34462;51.368;12.364;2022-12-10T05:02:10;30.50;;;16.67;;
15258;SDS011;34462;51.368;12.364;2022-12-10T05:04:38;26.47;;;16.10;;
15258;SDS011;34462;51.368;12.364;2022-12-10T05:07:07;30.13;;;16.83;;
15258;SDS011;34462;51.368;12.364;2022-12-10T05:09:36;27.07;;;15.37;;
15258;SDS011;34462;51.368;12.364;2022-12-10T05:12:05;28.80;;;15.60;;
15258;SDS011;34462;51.368;12.364;2022-12-10T05:14:34;27.13;;;16.53;;
15258;SDS011;34462;51.368;12.364;2022-12-10T05:17:02;28.33;;;15.70;;
15258;SDS011;34462;51.368;12.364;2022-12-10T05:19:30;28.07;;;16.67;;
15258;SDS011;34462;51.368;12.364;2022-12-10T05:21:58;26.63;;;15.23;;
15258;SDS011;34462;51.368;12.364;2022-12-10T05:24:45;30.00;;;16.70;;
15258;SDS011;34462;51.368;12.364;2022-12-10T05:27:16;29.90;;;16.60;;
15258;SDS011;34462;51.368;12.364;2022-12-10T05:29:44;28.87;;;16.43;;
15258;SDS011;34462;51.368;12.364;2022-12-10T05:32:12;29.80;;;15.40;;
15258;SDS011;34462;51.368;12.364;2022-12-10T05:34:40;30.00;;;16.77;;
15258;SDS011;34462;51.368;12.364;2022-12-10T05:37:08;28.00;;;16.43;;
15258;SDS011;34462;51.368;12.364;2022-12-10T05:39:36;28.33;;;16.27;;
15258;SDS011;34462;51.368;12.364;2022-12-10T05:42:06;33.97;;;17.20;;
15258;SDS011;34462;51.368;12.364;2022-12-10T05:44:34;29.97;;;16.77;;
15258;SDS011;34462;51.368;12.364;2022-12-10T05:47:02;28.23;;;16.13;;
15258;SDS011;34462;51.368;12.364;2022-12-10T05:49:30;30.17;;;16.60;;
15258;SDS011;34462;51.368;12.364;2022-12-10T05:51:59;29.63;;;16.60;;
15258;SDS011;34462;51.368;12.364;2022-12-10T05:54:27;29.00;;;16.00;;
15258;SDS011;34462;51.368;12.364;2022-12-10T05:56:55;32.83;;;16.77;;
15258;SDS011;34462;51.368;12.364;2022-12-10T05:59:24;29.67;;;16.33;;
15258;SDS011;34462;51.368;12.364;2022-12-10T06:01:53;31.40;;;17.70;;
15258;SDS011;34462;51.368;12.364;2022-12-10T06:04:21;32.53;;;17.10;;
15258;SDS011;34462;51.368;12.364;2022-12-10T06:06:50;28.97;;;15.87;;
15258;SDS011;34462;51.368;12.364;2022-12-10T06:09:18;31.03;;;17.37;;
15258;SDS011;34462;51.368;12.364;2022-12-10T06:11:46;29.83;;;16.27;;
15258;SDS011;34462;51.368;12.364;2022-12-10T06:14:14;28.80;;;16.07;;
15258;SDS011;34462;51.368;12.364;2022-12-10T06:16:43;31.53;;;17.23;;
15258;SDS011;34462;51.368;12.364;2022-12-10T06:19:11;30.70;;;16.50;;
15258;SDS011;34462;51.368;12.364;2022-12-10T06:21:40;31.37;;;16.97;;
15258;SDS011;34462;51.368;12.364;2022-12-10T06:24:08;30.93;;;16.97;;
15258;SDS011;34462;51.368;12.364;2022-12-10T06:26:36;29.97;;;15.97;;
15258;SDS011;34462;51.368;12.364;2022-12-10T06:29:04;31.50;;;16.73;;
15258;SDS011;34462;51.368;12.364;2022-12-10T06:31:32;29.90;;;15.83;;
15258;SDS011;34462;51.368;12.364;2022-12-10T06:34:02;30.97;;;16.83;;
15258;SDS011;34462;51.368;12.364;2022-12-10T06:36:30;32.50;;;16.73;;
15258;SDS011;34462;51.368;12.364;2022-12-10T06:38:58;31.50;;;16.27;;
15258;SDS011;34462;51.368;12.364;2022-12-10T06:41:26;29.83;;;15.37;;
15258;SDS011;34462;51.368;12.364;2022-12-10T06:43:55;30.10;;;15.73;;
15258;SDS011;34462;51.368;12.364;2022-12-10T06:46:24;30.87;;;16.63;;
15258;SDS011;34462;51.368;12.364;2022-12-10T06:48:54;30.17;;;16.67;;
15258;SDS011;34462;51.368;12.364;2022-12-10T06:51:24;26.83;;;15.13;;
15258;SDS011;34462;51.368;12.364;2022-12-10T06:53:52;31.50;;;17.57;;
15258;SDS011;34462;51.368;12.364;2022-12-10T06:56:20;28.30;;;16.00;;
15258;SDS011;34462;51.368;12.364;2022-12-10T06:58:49;27.33;;;15.43;;
15258;SDS011;34462;51.368;12.364;2022-12-10T07:01:18;30.67;;;16.23;;
15258;SDS011;34462;51.368;12.364;2022-12-10T07:03:52;26.07;;;15.23;;
15258;SDS011;34462;51.368;12.364;2022-12-10T07:06:24;30.43;;;15.20;;
15258;SDS011;34462;51.368;12.364;2022-12-10T07:08:54;29.90;;;16.60;;
15258;SDS011;34462;51.368;12.364;2022-12-10T07:11:22;29.70;;;16.30;;
15258;SDS011;34462;51.368;12.364;2022-12-10T07:13:52;33.73;;;16.93;;
15258;SDS011;34462;51.368;12.364;2022-12-10T07:16:21;35.23;;;16.43;;
15258;SDS011;34462;51.368;12.364;2022-12-10T07:18:51;30.50;;;15.93;;
15258;SDS011;34462;51.368;12.364;2022-12-10T07:21:22;31.03;;;16.50;;
15258;SDS011;34462;51.368;12.364;2022-12-10T07:23:54;26.80;;;14.77;;
15258;SDS011;34462;51.368;12.364;2022-12-10T07:26:25;30.03;;;16.20;;
15258;SDS011;34462;51.368;12.364;2022-12-10T07:28:57;28.87;;;15.23;;
15258;SDS011;34462;51.368;12.364;2022-12-10T07:31:26;28.73;;;15.53;;
15258;SDS011;34462;51.368;12.364;2022-12-10T07:33:56;28.23;;;15.13;;
15258;SDS011;34462;51.368;12.364;2022-12-10T07:36:27;31.57;;;16.70;;
15258;SDS011;34462;51.368;12.364;2022-12-10T07:38:55;29.77;;;15.47;;
15258;SDS011;34462;51.368;12.364;2022-12-10T07:41:24;29.23;;;15.60;;
15258;SDS011;34462;51.368;12.364;2022-12-10T07:43:52;28.17;;;16.27;;
15258;SDS011;34462;51.368;12.364;2022-12-10T07:46:22;30.53;;;16.93;;
15258;SDS011;34462;51.368;12.364;2022-12-10T07:48:54;29.63;;;15.07;;
15258;SDS011;34462;51.368;12.364;2022-12-10T07:51:23;31.13;;;16.00;;
15258;SDS011;34462;51.368;12.364;2022-12-10T07:53:52;28.03;;;15.30;;
15258;SDS011;34462;51.368;12.364;2022-12-10T07:56:22;29.67;;;16.23;;
15258;SDS011;34462;51.368;12.364;2022-12-10T07:58:51;26.77;;;15.27;;
15258;SDS011;34462;51.368;12.364;2022-12-10T08:01:21;27.03;;;14.97;;
15258;SDS011;34462;51.368;12.364;2022-12-10T08:03:52;29.87;;;15.97;;
15258;SDS011;34462;51.368;12.364;2022-12-10T08:06:24;25.47;;;14.97;;
15258;SDS011;34462;51.368;12.364;2022-12-10T08:08:57;29.27;;;15.43;;
15258;SDS011;34462;51.368;12.364;2022-12-10T08:11:27;30.53;;;16.67;;
15258;SDS011;34462;51.368;12.364;2022-12-10T08:13:55;30.43;;;15.37;;
15258;SDS011;34462;51.368;12.364;2022-12-10T08:16:24;28.23;;;15.57;;
15258;SDS011;34462;51.368;12.364;2022-12-10T08:18:56;30.27;;;16.27;;
15258;SDS011;34462;51.368;12.364;2022-12-10T08:21:27;28.73;;;16.43;;
15258;SDS011;34462;51.368;12.364;2022-12-10T08:23:59;27.97;;;15.13;;
15258;SDS011;34462;51.368;12.364;2022-12-10T08:26:28;27.30;;;15.63;;
15258;SDS011;34462;51.368;12.364;2022-12-10T08:29:00;31.20;;;17.40;;
15258;SDS011;34462;51.368;12.364;2022-12-10T08:31:28;28.63;;;17.03;;
15258;SDS011;34462;51.368;12.364;2022-12-10T08:34:03;28.17;;;16.43;;
15258;SDS011;34462;51.368;12.364;2022-12-10T08:36:32;31.07;;;17.50;;
15258;SDS011;34462;51.368;12.364;2022-12-10T08:39:02;26.03;;;14.83;;
15258;SDS011;34462;51.368;12.364;2022-12-10T08:41:30;28.17;;;16.07;;
15258;SDS011;34462;51.368;12.364;2022-12-10T08:43:58;29.20;;;17.07;;
15258;SDS011;34462;51.368;12.364;2022-12-10T08:46:26;27.40;;;15.97;;
15258;SDS011;34462;51.368;12.364;2022-12-10T08:48:55;30.13;;;17.63;;
15258;SDS011;34462;51.368;12.364;2022-12-10T08:51:23;29.73;;;16.77;;
15258;SDS011;34462;51.368;12.364;2022-12-10T08:53:52;30.70;;;17.47;;
15258;SDS011;34462;51.368;12.364;2022-12-10T08:56:21;34.13;;;19.43;;
15258;SDS011;34462;51.368;12.364;2022-12-10T08:58:49;33.67;;;19.87;;
15258;SDS011;34462;51.368;12.364;2022-12-10T09:01:18;33.13;;;18.70;;
15258;SDS011;34462;51.368;12.364;2022-12-10T09:03:46;29.53;;;16.77;;
15258;SDS011;34462;51.368;12.364;2022-12-10T09:06:18;33.53;;;19.13;;
15258;SDS011;34462;51.368;12.364;2022-12-10T09:08:50;35.67;;;19.97;;
15258;SDS011;34462;51.368;12.364;2022-12-10T09:11:19;34.57;;;19.83;;
15258;SDS011;34462;51.368;12.364;2022-12-10T09:13:51;32.87;;;17.57;;
15258;SDS011;34462;51.368;12.364;2022-12-10T09:16:21;32.07;;;17.57;;
15258;SDS011;34462;51.368;12.364;2022-12-10T09:18:55;31.67;;;17.50;;
15258;SDS011;34462;51.368;12.364;2022-12-10T09:21:23;31.27;;;16.97;;
15258;SDS011;34462;51.368;12.364;2022-12-10T09:23:52;31.07;;;17.20;;
15258;SDS011;34462;51.368;12.364;2022-12-10T09:26:20;35.50;;;18.57;;
15258;SDS011;34462;51.368;12.364;2022-12-10T09:28:50;32.63;;;18.03;;
15258;SDS011;34462;51.368;12.364;2022-12-10T09:31:19;30.47;;;16.83;;
15258;SDS011;34462;51.368;12.364;2022-12-10T09:33:48;29.73;;;16.37;;
15258;SDS011;34462;51.368;12.364;2022-12-10T09:36:19;28.63;;;17.07;;
15258;SDS011;34462;51.368;12.364;2022-12-10T09:38:55;28.23;;;15.90;;
15258;SDS011;34462;51.368;12.364;2022-12-10T09:44:41;30.33;;;17.63;;
15258;SDS011;34462;51.368;12.364;2022-12-10T09:47:23;29.93;;;16.70;;
15258;SDS011;34462;51.368;12.364;2022-12-10T09:50:04;27.07;;;15.57;;
15258;SDS011;34462;51.368;12.364;2022-12-10T09:52:46;25.60;;;14.87;;
15258;SDS011;34462;51.368;12.364;2022-12-10T09:55:18;31.03;;;16.33;;
15258;SDS011;34462;51.368;12.364;2022-12-10T09:58:00;24.70;;;15.17;;
15258;SDS011;34462;51.368;12.364;2022-12-10T10:00:34;29.17;;;16.43;;
15258;SDS011;34462;51.368;12.364;2022-12-10T10:03:06;24.40;;;14.77;;
15258;SDS011;34462;51.368;12.364;2022-12-10T10:05:40;24.90;;;14.60;;
15258;SDS011;34462;51.368;12.364;2022-12-10T10:08:14;25.37;;;13.93;;
15258;SDS011;34462;51.368;12.364;2022-12-10T10:10:54;25.10;;;14.70;;
15258;SDS011;34462;51.368;12.364;2022-12-10T10:13:27;23.00;;;13.73;;
15258;SDS011;34462;51.368;12.364;2022-12-10T10:16:12;25.97;;;14.97;;
15258;SDS011;34462;51.368;12.364;2022-12-10T10:18:51;23.67;;;14.27;;
15258;SDS011;34462;51.368;12.364;2022-12-10T10:21:25;25.20;;;15.03;;
15258;SDS011;34462;51.368;12.364;2022-12-10T10:23:58;24.47;;;14.50;;
15258;SDS011;34462;51.368;12.364;2022-12-10T10:26:31;22.47;;;13.60;;
15258;SDS011;34462;51.368;12.364;2022-12-10T10:29:02;25.20;;;16.60;;
15258;SDS011;34462;51.368;12.364;2022-12-10T10:31:35;22.87;;;14.03;;
15258;SDS011;34462;51.368;12.364;2022-12-10T10:34:12;20.40;;;13.13;;
15258;SDS011;34462;51.368;12.364;2022-12-10T10:36:44;21.00;;;13.07;;
15258;SDS011;34462;51.368;12.364;2022-12-10T10:39:23;21.20;;;12.80;;
15258;SDS011;34462;51.368;12.364;2022-12-10T10:41:56;23.63;;;13.10;;
15258;SDS011;34462;51.368;12.364;2022-12-10T10:44:33;21.93;;;12.87;;
15258;SDS011;34462;51.368;12.364;2022-12-10T10:47:23;22.60;;;13.50;;
15258;SDS011;34462;51.368;12.364;2022-12-10T10:49:59;20.97;;;12.60;;
15258;SDS011;34462;51.368;12.364;2022-12-10T10:52:30;18.87;;;12.40;;
15258;SDS011;34462;51.368;12.364;2022-12-10T10:55:05;19.70;;;12.40;;
15258;SDS011;34462;51.368;12.364;2022-12-10T10:58:01;20.43;;;12.10;;
15258;SDS011;34462;51.368;12.364;2022-12-10T11:00:30;21.87;;;12.93;;
15258;SDS011;34462;51.368;12.364;2022-12-10T11:02:58;18.27;;;11.37;;
15258;SDS011;34462;51.368;12.364;2022-12-10T11:05:26;19.07;;;12.40;;
15258;SDS011;34462;51.368;12.364;2022-12-10T11:08:02;21.60;;;13.43;;
15258;SDS011;34462;51.368;12.364;2022-12-10T11:10:35;18.83;;;12.77;;
15258;SDS011;34462;51.368;12.364;2022-12-10T11:13:05;19.13;;;11.97;;
15258;SDS011;34462;51.368;12.364;2022-12-10T11:15:47;20.30;;;12.33;;
15258;SDS011;34462;51.368;12.364;2022-12-10T11:18:25;19.30;;;11.83;;
15258;SDS011;34462;51.368;12.364;2022-12-10T11:21:03;18.70;;;11.73;;
15258;SDS011;34462;51.368;12.364;2022-12-10T11:23:43;17.90;;;11.60;;
15258;SDS011;34462;51.368;12.364;2022-12-10T11:29:36;21.37;;;13.03;;
15258;SDS011;34462;51.368;12.364;2022-12-10T11:32:23;19.47;;;11.87;;
15258;SDS011;34462;51.368;12.364;2022-12-10T11:35:17;18.73;;;12.17;;
15258;SDS011;34462;51.368;12.364;2022-12-10T11:37:55;19.10;;;12.93;;
15258;SDS011;34462;51.368;12.364;2022-12-10T11:40:37;20.30;;;12.63;;
15258;SDS011;34462;51.368;12.364;2022-12-10T11:43:19;20.87;;;12.67;;
15258;SDS011;34462;51.368;12.364;2022-12-10T11:46:09;21.70;;;13.23;;
15258;SDS011;34462;51.368;12.364;2022-12-10T11:48:57;21.57;;;13.47;;
15258;SDS011;34462;51.368;12.364;2022-12-10T11:51:44;22.03;;;13.23;;
15258;SDS011;34462;51.368;12.364;2022-12-10T11:54:30;20.70;;;13.50;;
15258;SDS011;34462;51.368;12.364;2022-12-10T11:57:17;23.47;;;13.50;;
15258;SDS011;34462;51.368;12.364;2022-12-10T12:00:00;17.23;;;11.90;;
15258;SDS011;34462;51.368;12.364;2022-12-10T12:05:50;19.00;;;11.90;;
15258;SDS011;34462;51.368;12.364;2022-12-10T12:08:36;18.27;;;11.87;;
15258;SDS011;34462;51.368;12.364;2022-12-10T12:11:25;18.13;;;11.10;;
15258;SDS011;34462;51.368;12.364;2022-12-10T12:14:14;20.83;;;12.53;;
15258;SDS011;34462;51.368;12.364;2022-12-10T12:16:51;17.63;;;12.07;;
15258;SDS011;34462;51.368;12.364;2022-12-10T12:19:32;22.13;;;12.57;;
15258;SDS011;34462;51.368;12.364;2022-12-10T12:22:07;20.50;;;12.67;;
15258;SDS011;34462;51.368;12.364;2022-12-10T12:24:43;19.43;;;12.10;;
15258;SDS011;34462;51.368;12.364;2022-12-10T12:27:18;19.07;;;12.20;;
15258;SDS011;34462;51.368;12.364;2022-12-10T12:29:58;20.97;;;13.00;;
15258;SDS011;34462;51.368;12.364;2022-12-10T12:32:40;19.77;;;12.57;;
15258;SDS011;34462;51.368;12.364;2022-12-10T12:35:21;18.57;;;12.37;;
15258;SDS011;34462;51.368;12.364;2022-12-10T12:37:59;19.73;;;13.50;;
15258;SDS011;34462;51.368;12.364;2022-12-10T12:40:41;19.07;;;12.77;;
15258;SDS011;34462;51.368;12.364;2022-12-10T12:43:19;19.83;;;13.63;;
15258;SDS011;34462;51.368;12.364;2022-12-10T12:45:55;21.83;;;13.40;;
15258;SDS011;34462;51.368;12.364;2022-12-10T12:48:26;20.67;;;12.90;;
15258;SDS011;34462;51.368;12.364;2022-12-10T12:51:02;22.40;;;14.03;;
15258;SDS011;34462;51.368;12.364;2022-12-10T12:53:36;20.73;;;14.37;;
15258;SDS011;34462;51.368;12.364;2022-12-10T12:56:05;20.47;;;13.23;;
15258;SDS011;34462;51.368;12.364;2022-12-10T12:58:51;19.77;;;13.27;;
15258;SDS011;34462;51.368;12.364;2022-12-10T13:01:34;21.17;;;13.37;;
15258;SDS011;34462;51.368;12.364;2022-12-10T13:04:11;23.10;;;14.17;;
15258;SDS011;34462;51.368;12.364;2022-12-10T13:06:40;21.67;;;13.83;;
15258;SDS011;34462;51.368;12.364;2022-12-10T13:09:18;22.40;;;14.13;;
15258;SDS011;34462;51.368;12.364;2022-12-10T13:15:01;22.03;;;14.33;;
15258;SDS011;34462;51.368;12.364;2022-12-10T13:20:33;23.50;;;14.30;;
15258;SDS011;34462;51.368;12.364;2022-12-10T13:26:02;23.17;;;14.47;;
15258;SDS011;34462;51.368;12.364;2022-12-10T13:28:32;23.63;;;14.57;;
15258;SDS011;34462;51.368;12.364;2022-12-10T13:31:21;25.87;;;14.90;;
15258;SDS011;34462;51.368;12.364;2022-12-10T13:37:15;26.13;;;15.47;;
15258;SDS011;34462;51.368;12.364;2022-12-10T13:39:59;23.33;;;14.93;;
15258;SDS011;34462;51.368;12.364;2022-12-10T13:42:43;26.70;;;15.57;;
15258;SDS011;34462;51.368;12.364;2022-12-10T13:45:38;24.23;;;15.77;;
15258;SDS011;34462;51.368;12.364;2022-12-10T13:51:07;25.07;;;15.60;;
15258;SDS011;34462;51.368;12.364;2022-12-10T13:53:58;26.50;;;16.30;;
15258;SDS011;34462;51.368;12.364;2022-12-10T13:56:53;28.93;;;16.00;;
15258;SDS011;34462;51.368;12.364;2022-12-10T13:59:37;27.23;;;15.80;;
15258;SDS011;34462;51.368;12.364;2022-12-10T14:02:25;25.47;;;15.30;;
15258;SDS011;34462;51.368;12.364;2022-12-10T14:05:14;27.00;;;15.87;;
15258;SDS011;34462;51.368;12.364;2022-12-10T14:08:08;25.77;;;15.70;;
15258;SDS011;34462;51.368;12.364;2022-12-10T14:10:46;25.80;;;15.90;;
15258;SDS011;34462;51.368;12.364;2022-12-10T14:13:15;25.87;;;16.07;;
15258;SDS011;34462;51.368;12.364;2022-12-10T14:15:51;26.77;;;16.33;;
15258;SDS011;34462;51.368;12.364;2022-12-10T14:18:25;22.80;;;14.77;;
15258;SDS011;34462;51.368;12.364;2022-12-10T14:20:56;27.90;;;17.07;;
15258;SDS011;34462;51.368;12.364;2022-12-10T14:23:32;26.73;;;16.97;;
15258;SDS011;34462;51.368;12.364;2022-12-10T14:26:14;23.87;;;14.77;;
15258;SDS011;34462;51.368;12.364;2022-12-10T14:28:47;24.97;;;15.97;;
15258;SDS011;34462;51.368;12.364;2022-12-10T14:31:25;23.60;;;14.33;;
15258;SDS011;34462;51.368;12.364;2022-12-10T14:34:00;20.93;;;14.00;;
15258;SDS011;34462;51.368;12.364;2022-12-10T14:36:31;24.43;;;14.77;;
15258;SDS011;34462;51.368;12.364;2022-12-10T14:39:05;22.97;;;14.57;;
15258;SDS011;34462;51.368;12.364;2022-12-10T14:41:44;21.97;;;14.07;;
15258;SDS011;34462;51.368;12.364;2022-12-10T14:44:16;24.23;;;14.70;;
15258;SDS011;34462;51.368;12.364;2022-12-10T14:46:46;19.20;;;13.10;;
15258;SDS011;34462;51.368;12.364;2022-12-10T14:49:16;19.60;;;13.70;;
15258;SDS011;34462;51.368;12.364;2022-12-10T14:51:48;22.77;;;14.13;;
15258;SDS011;34462;51.368;12.364;2022-12-10T14:54:25;20.20;;;13.63;;
15258;SDS011;34462;51.368;12.364;2022-12-10T14:56:59;23.93;;;14.70;;
15258;SDS011;34462;51.368;12.364;2022-12-10T14:59:35;23.53;;;14.70;;
15258;SDS011;34462;51.368;12.364;2022-12-10T15:02:12;22.97;;;15.50;;
15258;SDS011;34462;51.368;12.364;2022-12-10T15:04:48;23.10;;;15.10;;
15258;SDS011;34462;51.368;12.364;2022-12-10T15:07:19;25.00;;;15.63;;
15258;SDS011;34462;51.368;12.364;2022-12-10T15:09:50;25.50;;;15.87;;
15258;SDS011;34462;51.368;12.364;2022-12-10T15:12:30;24.63;;;16.03;;
15258;SDS011;34462;51.368;12.364;2022-12-10T15:15:11;25.63;;;16.33;;